Hickam AFB, HI (96853)

11:25 AM HST on July 27, 2017 (GMT -1000)
Aliamanu - Salt Lakes - Foster Village | | Change Station

Elev 39 ft 21.35 °N, 157.91 °W | Updated 15 minutes ago

Light Rain
Light Rain
83.7 °F
Feels Like 94 °F
N
1.9
Wind Variable Wind from SSW
Gusts 3.7 mph

Today
High -- | Low -- °F
--% Chance of Precip.
Yesterday
High -- | Low -- °F
Precip. -- in
Pressure 30.05 in
Visibility 10.0 miles
Clouds Few 2500 ft
Scattered Clouds 4500 ft
Scattered Clouds 6000 ft
Heat Index 94 °F
Dew Point 78 °F
Humidity 83%
Rainfall 0.01 in
Snow Depth Not available.
6:03 AM 7:12 PM
Waxing Crescent, 24% visible
METAR PHNL 272053Z 02010G15KT 10SM -RA FEW025 SCT045 SCT060 28/19 A3005 RMK AO2 RAB39 SLP174 P0000 60000 T02780194 58003
Pressure 30.05 in
Visibility 10.0 miles
Clouds Few 2500 ft
Scattered Clouds 4500 ft
Scattered Clouds 6000 ft
Heat Index 94 °F
Dew Point 78 °F
Humidity 83%
Rainfall 0.01 in
Snow Depth Not available.
6:03 AM 7:12 PM
Waxing Crescent, 24% visible
METAR PHNL 272053Z 02010G15KT 10SM -RA FEW025 SCT045 SCT060 28/19 A3005 RMK AO2 RAB39 SLP174 P0000 60000 T02780194 58003

Get Severe Weather Alerts

Thanks for signing up!

Be on the lookout for a verification email in your inbox.

You'll start receiving the daily forecast at 6 AM.

×

10-Day Weather Forecast

Almanac

Astronomy

Jul. 27, 2017 Rise Set
Actual Time
Civil Twilight
Nautical Twilight
Astronomical Twilight
Moon
Length of Visible Light
Length of Day
Tomorrow will be .
, % of the Moon is Illuminated

Today's Extremes

State Highs State Lows

Community

WunderPhotos

Category 6

Welcome to Category 6. This is the collective home for Weather Underground's featured writeups by Dr. Jeff Masters (right), Bob Henson (left), Chris Burt, and other regular contributors.

Nearby

Air Quality

  Air Quality AQ Index Pollutant
Not available.

Snow Depth

Station Depth Elevation

Earthquake Activity

City Distance Mag. Time & Date
Minimum magnitude displayed is 2.5.

Coastal Water Temperatures

Place Temperature

Stations

Nearby Weather Stations

Station Location Temp. Windchill Dew Point Humidity Wind Precip. Elev Updated Type
                   

Watches & Warnings

There are currently no watches in effect.